Weather at El Encinal Heliport

Public forecast

Using degrees Celsius for public forecast. Weather courtesy of forecast.io.

Closest aviation weather report (METAR) to El Encinal Heliport

Closest report is General Heriberto Jara International Airport, 66.7 nm (123.6 km) N. Retrieved 2021/06/12 18:43 UTC (31 minutes ago):

MMVR 121843Z 10006KT 7SM FEW012 SCT070 BKN250 30/24 A2985 RMK 8/138 HZY DSNT TCU W

Closest aviation forecast (TAF) to El Encinal Heliport

Closest forecast is General Heriberto Jara International Airport, 66.7 nm (123.6 km) N. Retrieved 2021/06/12 18:00 UTC (1 hour ago):

TAF MMVR 121658Z 1218/1318 16015KT P6SM SCT015CB BKN100 BKN240 TX30/1220Z TN23/1312Z FM122000 34015KT P6SM TSRA BKN015CB OVC100 TEMPO 1220/1224 3SM TSRA BECMG 1301/1302 12010KT TEMPO 1301/1304 5SM TSRA FM130600 00000KT P6SM SCT015CB BKN100 BKN240 FM131500 00000KT 4SM HZ SCT010 BKN240